Presque Isle, Wisconsin
Current Conditions -  °F | °C
As of 10:35 PM on Saturday 22 Nov 2014 (Local Time) from KD25 Reporting Station
Haze Haze  
Wind Chill: 25°   Ceiling: 200
Heat Index: 33°   Visibility: 2mi
Dew Point: 33°   Wind: 9mph
Humidity: 100%   Direction: 180°S
Pressure: 29.65"   Gusts: NA
Location:  46.25°N, 89.73°W
Report Text: KD25 230435Z AUTO 18008KT 2SM BR OVC002 01/01 A2965 RMK AO2 T00060006
Loading
Personal Weather Stations






























Interactive Weather Map New forecast layout! Learn more

10-Day Weather Forecast

Advertisements
Track Severe Weather on mobile